^^
Station Historical Data
Daily Summary for April 7, 2019 Units:  Both    English   Metric
« Previous Day
Next Day »
Daily Weekly Monthly Yearly Custom
  High: Low: Average:
Temperature: 66.5 °F /  19.2 °C 39.7 °F /  4.3 °C 53 °F /  11.7 °C
Dew Point: 42.2 °F /  5.7 °C 28.4 °F /  -2 °C 35.6 °F /  2 °C
Humidity: 97% 25% 59%
Wind Speed: 31.0mph /  49.9km/h - 10.7mph /  17.2km/h
Wind Gust: 35.0mph /  56.3km/h - -
Wind- - SW
Pressure: 29.77 in /  1008 hPa 29.64 in /  1003.6 hPa -
Precipitation: 0.02 in /  0.51 mm    
Historical Graphs
 
 
Tabular Data for April 7, 2019
Time Temperature Dew Point Pressure Wind Wind Speed Wind Gust Humidity Rainfall Rate (Hourly) solar Conditions
00:04 43.3 °F /  6.3 °C 42.2 °F /  5.7 °C 29.72in /  1006.3hPa ENE 3.0mph /  4.8km/h 5.0mph /  8km/h 96% 0.01in /  0.25mm 0.00 W/m2
00:09 43.2 °F /  6.2 °C 42.1 °F /  5.6 °C 29.71in /  1006hPa East 3.0mph /  4.8km/h 5.0mph /  8km/h 96% 0.01in /  0.25mm 0.00 W/m2
00:14 43.2 °F /  6.2 °C 42.1 °F /  5.6 °C 29.71in /  1006hPa East 3.0mph /  4.8km/h 5.0mph /  8km/h 96% 0.01in /  0.25mm 0.00 W/m2
00:19 43.2 °F /  6.2 °C 42.1 °F /  5.6 °C 29.71in /  1006hPa East 3.0mph /  4.8km/h 5.0mph /  8km/h 96% 0.01in /  0.25mm 0.00 W/m2
00:24 43.2 °F /  6.2 °C 42.1 °F /  5.6 °C 29.71in /  1006hPa East 3.0mph /  4.8km/h 5.0mph /  8km/h 96% 0.01in /  0.25mm 0.00 W/m2
00:29 43.2 °F /  6.2 °C 42.1 °F /  5.6 °C 29.70in /  1005.6hPa East 3.0mph /  4.8km/h 5.0mph /  8km/h 96% 0.01in /  0.25mm 0.00 W/m2
00:34 43.2 °F /  6.2 °C 42.1 °F /  5.6 °C 29.71in /  1006hPa East 3.0mph /  4.8km/h 5.0mph /  8km/h 96% 0.01in /  0.25mm 0.00 W/m2
00:39 43.2 °F /  6.2 °C 42.1 °F /  5.6 °C 29.70in /  1005.6hPa ESE 3.0mph /  4.8km/h 5.0mph /  8km/h 96% 0.01in /  0.25mm 0.00 W/m2
00:44 43.2 °F /  6.2 °C 42.1 °F /  5.6 °C 29.70in /  1005.6hPa East 3.0mph /  4.8km/h 6.0mph /  9.7km/h 96% 0.01in /  0.25mm 0.00 W/m2
00:49 43.2 °F /  6.2 °C 42.1 °F /  5.6 °C 29.70in /  1005.6hPa ESE 5.0mph /  8km/h 6.0mph /  9.7km/h 96% 0.01in /  0.25mm 0.00 W/m2
00:54 43.2 °F /  6.2 °C 42.1 °F /  5.6 °C 29.70in /  1005.6hPa ESE 3.0mph /  4.8km/h 6.0mph /  9.7km/h 96% 0.01in /  0.25mm 0.00 W/m2
00:59 43.2 °F /  6.2 °C 42.1 °F /  5.6 °C 29.70in /  1005.6hPa East 5.0mph /  8km/h 6.0mph /  9.7km/h 96% 0.01in /  0.25mm 0.00 W/m2
01:04 43.1 °F /  6.2 °C 42.0 °F /  5.6 °C 29.70in /  1005.6hPa ESE 3.0mph /  4.8km/h 6.0mph /  9.7km/h 96% 0.00in /  0mm 0.00 W/m2
01:09 43.1 °F /  6.2 °C 42.0 °F /  5.6 °C 29.70in /  1005.6hPa East 6.0mph /  9.7km/h 6.0mph /  9.7km/h 96% 0.00in /  0mm 0.00 W/m2
01:14 43.1 °F /  6.2 °C 42.0 °F /  5.6 °C 29.70in /  1005.6hPa ESE 3.0mph /  4.8km/h 7.0mph /  11.3km/h 96% 0.00in /  0mm 0.00 W/m2
01:19 43.1 °F /  6.2 °C 42.0 °F /  5.6 °C 29.70in /  1005.6hPa ESE 3.0mph /  4.8km/h 7.0mph /  11.3km/h 96% 0.00in /  0mm 0.00 W/m2
01:24 43.1 °F /  6.2 °C 42.0 °F /  5.6 °C 29.70in /  1005.6hPa East 3.0mph /  4.8km/h 7.0mph /  11.3km/h 96% 0.00in /  0mm 0.00 W/m2
01:29 43.1 °F /  6.2 °C 42.0 °F /  5.6 °C 29.71in /  1006hPa East 2.0mph /  3.2km/h 7.0mph /  11.3km/h 96% 0.00in /  0mm 0.00 W/m2
01:34 43.1 °F /  6.2 °C 42.0 °F /  5.6 °C 29.70in /  1005.6hPa East 3.0mph /  4.8km/h 6.0mph /  9.7km/h 96% 0.00in /  0mm 0.00 W/m2
01:39 43.0 °F /  6.1 °C 42.2 °F /  5.7 °C 29.71in /  1006hPa East 2.0mph /  3.2km/h 6.0mph /  9.7km/h 97% 0.00in /  0mm 0.00 W/m2
01:44 43.0 °F /  6.1 °C 42.2 °F /  5.7 °C 29.71in /  1006hPa East 3.0mph /  4.8km/h 6.0mph /  9.7km/h 97% 0.00in /  0mm 0.00 W/m2
01:49 43.0 °F /  6.1 °C 42.2 °F /  5.7 °C 29.71in /  1006hPa ESE 3.0mph /  4.8km/h 5.0mph /  8km/h 97% 0.00in /  0mm 0.00 W/m2
01:54 42.9 °F /  6.1 °C 42.1 °F /  5.6 °C 29.71in /  1006hPa ESE 1.0mph /  1.6km/h 5.0mph /  8km/h 97% 0.00in /  0mm 0.00 W/m2
01:59 42.9 °F /  6.1 °C 42.1 °F /  5.6 °C 29.71in /  1006hPa ESE 1.0mph /  1.6km/h 3.0mph /  4.8km/h 97% 0.00in /  0mm 0.00 W/m2
02:04 42.9 °F /  6.1 °C 42.1 °F /  5.6 °C 29.71in /  1006hPa ESE 3.0mph /  4.8km/h 3.0mph /  4.8km/h 97% 0.00in /  0mm 0.00 W/m2
02:09 42.9 °F /  6.1 °C 42.1 °F /  5.6 °C 29.71in /  1006hPa East 5.0mph /  8km/h 5.0mph /  8km/h 97% 0.00in /  0mm 0.00 W/m2
02:14 42.9 °F /  6.1 °C 42.1 °F /  5.6 °C 29.71in /  1006hPa East 2.0mph /  3.2km/h 5.0mph /  8km/h 97% 0.00in /  0mm 0.00 W/m2
02:19 42.9 °F /  6.1 °C 42.1 °F /  5.6 °C 29.71in /  1006hPa East 2.0mph /  3.2km/h 5.0mph /  8km/h 97% 0.00in /  0mm 0.00 W/m2
02:24 42.7 °F /  5.9 °C 41.9 °F /  5.5 °C 29.71in /  1006hPa East 3.0mph /  4.8km/h 3.0mph /  4.8km/h 97% 0.00in /  0mm 0.00 W/m2
02:29 42.6 °F /  5.9 °C 41.5 °F /  5.3 °C 29.71in /  1006hPa Calm   3.0mph /  4.8km/h 96% 0.00in /  0mm 0.00 W/m2
02:34 42.6 °F /  5.9 °C 41.5 °F /  5.3 °C 29.70in /  1005.6hPa Calm   3.0mph /  4.8km/h 96% 0.00in /  0mm 0.00 W/m2
02:39 42.6 °F /  5.9 °C 41.5 °F /  5.3 °C 29.71in /  1006hPa West 3.0mph /  4.8km/h 5.0mph /  8km/h 96% 0.00in /  0mm 0.00 W/m2
02:44 42.6 °F /  5.9 °C 41.5 °F /  5.3 °C 29.71in /  1006hPa West 3.0mph /  4.8km/h 5.0mph /  8km/h 96% 0.00in /  0mm 0.00 W/m2
02:49 42.6 °F /  5.9 °C 41.8 °F /  5.4 °C 29.71in /  1006hPa SW 3.0mph /  4.8km/h 4.0mph /  6.4km/h 97% 0.00in /  0mm 0.00 W/m2
02:54 42.6 °F /  5.9 °C 41.8 °F /  5.4 °C 29.71in /  1006hPa SW 1.0mph /  1.6km/h 4.0mph /  6.4km/h 97% 0.00in /  0mm 0.00 W/m2
02:59 42.6 °F /  5.9 °C 41.8 °F /  5.4 °C 29.71in /  1006hPa SW 3.0mph /  4.8km/h 4.0mph /  6.4km/h 97% 0.00in /  0mm 0.00 W/m2
03:04 42.7 °F /  5.9 °C 41.9 °F /  5.5 °C 29.71in /  1006hPa WSW 5.0mph /  8km/h 6.0mph /  9.7km/h 97% 0.00in /  0mm 0.00 W/m2
03:09 42.5 °F /  5.8 °C 41.7 °F /  5.4 °C 29.71in /  1006hPa WSW 4.0mph /  6.4km/h 6.0mph /  9.7km/h 97% 0.00in /  0mm 0.00 W/m2
03:14 42.5 °F /  5.8 °C 41.7 °F /  5.4 °C 29.71in /  1006hPa West 6.0mph /  9.7km/h 7.0mph /  11.3km/h 97% 0.00in /  0mm 0.00 W/m2
03:19 42.6 °F /  5.9 °C 41.8 °F /  5.4 °C 29.71in /  1006hPa West 7.0mph /  11.3km/h 7.0mph /  11.3km/h 97% 0.00in /  0mm 0.00 W/m2
03:24 42.6 °F /  5.9 °C 41.8 °F /  5.4 °C 29.71in /  1006hPa West 7.0mph /  11.3km/h 9.0mph /  14.5km/h 97% 0.00in /  0mm 0.00 W/m2
03:29 42.6 °F /  5.9 °C 41.8 °F /  5.4 °C 29.70in /  1005.6hPa WNW 7.0mph /  11.3km/h 10.0mph /  16.1km/h 97% 0.00in /  0mm 0.00 W/m2
03:34 42.5 °F /  5.8 °C 41.7 °F /  5.4 °C 29.70in /  1005.6hPa West 5.0mph /  8km/h 10.0mph /  16.1km/h 97% 0.00in /  0mm 0.00 W/m2
03:39 42.3 °F /  5.7 °C 41.5 °F /  5.3 °C 29.70in /  1005.6hPa West 7.0mph /  11.3km/h 9.0mph /  14.5km/h 97% 0.00in /  0mm 0.00 W/m2
03:44 42.2 °F /  5.7 °C 41.4 °F /  5.2 °C 29.70in /  1005.6hPa West 6.0mph /  9.7km/h 9.0mph /  14.5km/h 97% 0.00in /  0mm 0.00 W/m2
03:49 42.0 °F /  5.6 °C 41.2 °F /  5.1 °C 29.70in /  1005.6hPa West 5.0mph /  8km/h 9.0mph /  14.5km/h 97% 0.00in /  0mm 0.00 W/m2
03:54 41.9 °F /  5.5 °C 41.1 °F /  5.1 °C 29.71in /  1006hPa West 8.0mph /  12.9km/h 11.0mph /  17.7km/h 97% 0.00in /  0mm 0.00 W/m2
03:59 41.8 °F /  5.4 °C 41.0 °F /  5 °C 29.72in /  1006.3hPa West 11.0mph /  17.7km/h 13.0mph /  20.9km/h 97% 0.00in /  0mm 0.00 W/m2
04:04 41.9 °F /  5.5 °C 41.1 °F /  5.1 °C 29.72in /  1006.3hPa WSW 9.0mph /  14.5km/h 13.0mph /  20.9km/h 97% 0.00in /  0mm 0.00 W/m2
04:09 41.8 °F /  5.4 °C 41.0 °F /  5 °C 29.73in /  1006.7hPa WSW 9.0mph /  14.5km/h 13.0mph /  20.9km/h 97% 0.00in /  0mm 0.00 W/m2
04:14 41.6 °F /  5.3 °C 40.8 °F /  4.9 °C 29.74in /  1007hPa West 14.0mph /  22.5km/h 19.0mph /  30.6km/h 97% 0.00in /  0mm 0.00 W/m2
04:19 41.6 °F /  5.3 °C 40.8 °F /  4.9 °C 29.74in /  1007hPa WSW 13.0mph /  20.9km/h 21.0mph /  33.8km/h 97% 0.00in /  0mm 0.00 W/m2
04:24 41.6 °F /  5.3 °C 40.8 °F /  4.9 °C 29.75in /  1007.3hPa WNW 16.0mph /  25.7km/h 21.0mph /  33.8km/h 97% 0.00in /  0mm 0.00 W/m2
04:29 41.5 °F /  5.3 °C 40.7 °F /  4.8 °C 29.75in /  1007.3hPa WSW 22.0mph /  35.4km/h 22.0mph /  35.4km/h 97% 0.01in /  0.25mm 0.00 W/m2
04:34 41.4 °F /  5.2 °C 40.6 °F /  4.8 °C 29.75in /  1007.3hPa West 14.0mph /  22.5km/h 22.0mph /  35.4km/h 97% 0.01in /  0.25mm 0.00 W/m2
04:39 41.1 °F /  5.1 °C 40.3 °F /  4.6 °C 29.75in /  1007.3hPa West 10.0mph /  16.1km/h 21.0mph /  33.8km/h 97% 0.01in /  0.25mm 0.00 W/m2
04:44 40.6 °F /  4.8 °C 39.8 °F /  4.3 °C 29.74in /  1007hPa West 10.0mph /  16.1km/h 21.0mph /  33.8km/h 97% 0.01in /  0.25mm 0.00 W/m2
04:49 40.2 °F /  4.6 °C 39.4 °F /  4.1 °C 29.74in /  1007hPa West 8.0mph /  12.9km/h 16.0mph /  25.7km/h 97% 0.01in /  0.25mm 0.00 W/m2
04:54 40.0 °F /  4.4 °C 39.2 °F /  4 °C 29.75in /  1007.3hPa West 7.0mph /  11.3km/h 12.0mph /  19.3km/h 97% 0.01in /  0.25mm 0.00 W/m2
04:59 39.9 °F /  4.4 °C 39.1 °F /  3.9 °C 29.75in /  1007.3hPa West 7.0mph /  11.3km/h 11.0mph /  17.7km/h 97% 0.01in /  0.25mm 0.00 W/m2
05:04 39.8 °F /  4.3 °C 39.0 °F /  3.9 °C 29.75in /  1007.3hPa West 6.0mph /  9.7km/h 9.0mph /  14.5km/h 97% 0.01in /  0.25mm 0.00 W/m2
05:09 39.8 °F /  4.3 °C 39.0 °F /  3.9 °C 29.75in /  1007.3hPa WSW 7.0mph /  11.3km/h 9.0mph /  14.5km/h 97% 0.01in /  0.25mm 0.00 W/m2
05:14 39.7 °F /  4.3 °C 38.9 °F /  3.8 °C 29.75in /  1007.3hPa West 7.0mph /  11.3km/h 9.0mph /  14.5km/h 97% 0.01in /  0.25mm 0.00 W/m2
05:19 39.9 °F /  4.4 °C 39.1 °F /  3.9 °C 29.75in /  1007.3hPa West 7.0mph /  11.3km/h 8.0mph /  12.9km/h 97% 0.01in /  0.25mm 0.00 W/m2
05:24 40.2 °F /  4.6 °C 39.4 °F /  4.1 °C 29.75in /  1007.3hPa WNW 3.0mph /  4.8km/h 8.0mph /  12.9km/h 97% 0.01in /  0.25mm 0.00 W/m2
05:29 40.3 °F /  4.6 °C 39.5 °F /  4.2 °C 29.75in /  1007.3hPa West 3.0mph /  4.8km/h 7.0mph /  11.3km/h 97% 0.00in /  0mm 0.00 W/m2
05:34 40.4 °F /  4.7 °C 39.6 °F /  4.2 °C 29.75in /  1007.3hPa West 4.0mph /  6.4km/h 7.0mph /  11.3km/h 97% 0.00in /  0mm 0.00 W/m2
05:39 40.6 °F /  4.8 °C 39.8 °F /  4.3 °C 29.75in /  1007.3hPa West 4.0mph /  6.4km/h 7.0mph /  11.3km/h 97% 0.00in /  0mm 0.00 W/m2
05:44 40.7 °F /  4.8 °C 39.9 °F /  4.4 °C 29.75in /  1007.3hPa WSW 5.0mph /  8km/h 7.0mph /  11.3km/h 97% 0.00in /  0mm 0.00 W/m2
05:49 40.9 °F /  4.9 °C 40.1 °F /  4.5 °C 29.75in /  1007.3hPa West 7.0mph /  11.3km/h 9.0mph /  14.5km/h 97% 0.00in /  0mm 0.00 W/m2
05:54 41.1 °F /  5.1 °C 40.3 °F /  4.6 °C 29.75in /  1007.3hPa West 7.0mph /  11.3km/h 9.0mph /  14.5km/h 97% 0.00in /  0mm 0.00 W/m2
05:59 41.5 °F /  5.3 °C 40.7 °F /  4.8 °C 29.74in /  1007hPa WNW 7.0mph /  11.3km/h 11.0mph /  17.7km/h 97% 0.00in /  0mm 0.00 W/m2
06:04 41.8 °F /  5.4 °C 41.0 °F /  5 °C 29.74in /  1007hPa West 7.0mph /  11.3km/h 11.0mph /  17.7km/h 97% 0.00in /  0mm 0.00 W/m2
06:09 41.9 °F /  5.5 °C 41.1 °F /  5.1 °C 29.74in /  1007hPa WNW 5.0mph /  8km/h 10.0mph /  16.1km/h 97% 0.00in /  0mm 0.00 W/m2
06:14 42.0 °F /  5.6 °C 41.2 °F /  5.1 °C 29.74in /  1007hPa WNW 6.0mph /  9.7km/h 10.0mph /  16.1km/h 97% 0.00in /  0mm 0.00 W/m2
06:19 42.0 °F /  5.6 °C 41.2 °F /  5.1 °C 29.74in /  1007hPa WNW 6.0mph /  9.7km/h 10.0mph /  16.1km/h 97% 0.00in /  0mm 0.00 W/m2
06:24 41.7 °F /  5.4 °C 40.9 °F /  4.9 °C 29.73in /  1006.7hPa WNW 6.0mph /  9.7km/h 10.0mph /  16.1km/h 97% 0.00in /  0mm 0.00 W/m2
06:29 41.5 °F /  5.3 °C 40.7 °F /  4.8 °C 29.73in /  1006.7hPa West 4.0mph /  6.4km/h 7.0mph /  11.3km/h 97% 0.00in /  0mm 0.00 W/m2
06:34 41.6 °F /  5.3 °C 40.8 °F /  4.9 °C 29.73in /  1006.7hPa NW 6.0mph /  9.7km/h 8.0mph /  12.9km/h 97% 0.00in /  0mm 0.00 W/m2
06:39 42.0 °F /  5.6 °C 41.2 °F /  5.1 °C 29.73in /  1006.7hPa West 5.0mph /  8km/h 8.0mph /  12.9km/h 97% 0.00in /  0mm 0.00 W/m2
06:44 42.1 °F /  5.6 °C 41.3 °F /  5.2 °C 29.74in /  1007hPa West 4.0mph /  6.4km/h 7.0mph /  11.3km/h 97% 0.00in /  0mm 0.00 W/m2
06:49 42.2 °F /  5.7 °C 41.4 °F /  5.2 °C 29.74in /  1007hPa WNW 6.0mph /  9.7km/h 7.0mph /  11.3km/h 97% 0.00in /  0mm 0.00 W/m2
06:54 42.5 °F /  5.8 °C 41.7 °F /  5.4 °C 29.74in /  1007hPa NW 5.0mph /  8km/h 7.0mph /  11.3km/h 97% 0.00in /  0mm 0.00 W/m2
06:59 42.3 °F /  5.7 °C 41.5 °F /  5.3 °C 29.75in /  1007.3hPa NW 5.0mph /  8km/h 7.0mph /  11.3km/h 97% 0.00in /  0mm 0.00 W/m2
07:04 42.3 °F /  5.7 °C 41.5 °F /  5.3 °C 29.75in /  1007.3hPa NW 5.0mph /  8km/h 7.0mph /  11.3km/h 97% 0.00in /  0mm 0.00 W/m2
07:09 42.4 °F /  5.8 °C 41.3 °F /  5.2 °C 29.75in /  1007.3hPa WNW 7.0mph /  11.3km/h 7.0mph /  11.3km/h 96% 0.00in /  0mm 0.00 W/m2
07:14 42.6 °F /  5.9 °C 41.5 °F /  5.3 °C 29.75in /  1007.3hPa West 5.0mph /  8km/h 8.0mph /  12.9km/h 96% 0.00in /  0mm 0.00 W/m2
07:19 42.6 °F /  5.9 °C 41.3 °F /  5.2 °C 29.74in /  1007hPa West 4.0mph /  6.4km/h 8.0mph /  12.9km/h 95% 0.00in /  0mm 5.00 W/m2
07:24 42.7 °F /  5.9 °C 41.4 °F /  5.2 °C 29.75in /  1007.3hPa West 5.0mph /  8km/h 7.0mph /  11.3km/h 95% 0.00in /  0mm 7.00 W/m2
07:29 42.6 °F /  5.9 °C 41.3 °F /  5.2 °C 29.74in /  1007hPa West 3.0mph /  4.8km/h 7.0mph /  11.3km/h 95% 0.00in /  0mm 11.00 W/m2
07:34 42.5 °F /  5.8 °C 40.9 °F /  4.9 °C 29.75in /  1007.3hPa West 5.0mph /  8km/h 6.0mph /  9.7km/h 94% 0.00in /  0mm 14.00 W/m2
07:39 42.5 °F /  5.8 °C 40.9 °F /  4.9 °C 29.75in /  1007.3hPa West 5.0mph /  8km/h 7.0mph /  11.3km/h 94% 0.00in /  0mm 19.00 W/m2
07:44 42.6 °F /  5.9 °C 41.0 °F /  5 °C 29.75in /  1007.3hPa West 7.0mph /  11.3km/h 7.0mph /  11.3km/h 94% 0.00in /  0mm 23.00 W/m2
07:49 42.5 °F /  5.8 °C 40.6 °F /  4.8 °C 29.75in /  1007.3hPa West 5.0mph /  8km/h 9.0mph /  14.5km/h 93% 0.00in /  0mm 23.00 W/m2
07:54 42.9 °F /  6.1 °C 41.0 °F /  5 °C 29.75in /  1007.3hPa West 8.0mph /  12.9km/h 10.0mph /  16.1km/h 93% 0.00in /  0mm 26.00 W/m2
07:59 43.4 °F /  6.3 °C 41.2 °F /  5.1 °C 29.75in /  1007.3hPa West 4.0mph /  6.4km/h 10.0mph /  16.1km/h 92% 0.00in /  0mm 32.00 W/m2
08:04 43.7 °F /  6.5 °C 41.0 °F /  5 °C 29.76in /  1007.7hPa West 8.0mph /  12.9km/h 9.0mph /  14.5km/h 90% 0.00in /  0mm 37.00 W/m2
08:09 44.0 °F /  6.7 °C 41.0 °F /  5 °C 29.76in /  1007.7hPa West 9.0mph /  14.5km/h 10.0mph /  16.1km/h 89% 0.00in /  0mm 44.00 W/m2
08:14 44.2 °F /  6.8 °C 40.9 °F /  4.9 °C 29.76in /  1007.7hPa WSW 9.0mph /  14.5km/h 11.0mph /  17.7km/h 88% 0.00in /  0mm 60.00 W/m2
08:19 44.4 °F /  6.9 °C 40.8 °F /  4.9 °C 29.76in /  1007.7hPa West 8.0mph /  12.9km/h 12.0mph /  19.3km/h 87% 0.00in /  0mm 79.00 W/m2
08:24 45.0 °F /  7.2 °C 40.8 °F /  4.9 °C 29.77in /  1008hPa West 9.0mph /  14.5km/h 12.0mph /  19.3km/h 85% 0.00in /  0mm 83.00 W/m2
08:29 45.7 °F /  7.6 °C 40.8 °F /  4.9 °C 29.77in /  1008hPa WNW 9.0mph /  14.5km/h 14.0mph /  22.5km/h 83% 0.00in /  0mm 84.00 W/m2
08:34 46.9 °F /  8.3 °C 40.4 °F /  4.7 °C 29.77in /  1008hPa WNW 10.0mph /  16.1km/h 15.0mph /  24.1km/h 78% 0.00in /  0mm 148.00 W/m2
08:39 47.9 °F /  8.8 °C 40.4 °F /  4.7 °C 29.77in /  1008hPa WNW 13.0mph /  20.9km/h 16.0mph /  25.7km/h 75% 0.00in /  0mm 163.00 W/m2
08:44 48.5 °F /  9.2 °C 39.9 °F /  4.4 °C 29.77in /  1008hPa West 10.0mph /  16.1km/h 17.0mph /  27.4km/h 72% 0.00in /  0mm 183.00 W/m2
08:49 48.6 °F /  9.2 °C 39.3 °F /  4.1 °C 29.77in /  1008hPa West 13.0mph /  20.9km/h 17.0mph /  27.4km/h 70% 0.00in /  0mm 69.00 W/m2
08:54 48.4 °F /  9.1 °C 39.8 °F /  4.3 °C 29.77in /  1008hPa West 9.0mph /  14.5km/h 16.0mph /  25.7km/h 72% 0.00in /  0mm 243.00 W/m2
08:59 48.8 °F /  9.3 °C 40.5 °F /  4.7 °C 29.77in /  1008hPa West 10.0mph /  16.1km/h 15.0mph /  24.1km/h 73% 0.00in /  0mm 271.00 W/m2
09:04 49.2 °F /  9.6 °C 40.6 °F /  4.8 °C 29.77in /  1008hPa WNW 10.0mph /  16.1km/h 15.0mph /  24.1km/h 72% 0.00in /  0mm 287.00 W/m2
09:09 49.5 °F /  9.7 °C 40.1 °F /  4.5 °C 29.77in /  1008hPa West 14.0mph /  22.5km/h 15.0mph /  24.1km/h 70% 0.00in /  0mm 297.00 W/m2
09:14 49.7 °F /  9.8 °C 39.6 °F /  4.2 °C 29.76in /  1007.7hPa WNW 10.0mph /  16.1km/h 17.0mph /  27.4km/h 68% 0.00in /  0mm 315.00 W/m2
09:19 49.7 °F /  9.8 °C 39.6 °F /  4.2 °C 29.76in /  1007.7hPa WNW 14.0mph /  22.5km/h 17.0mph /  27.4km/h 68% 0.00in /  0mm 332.00 W/m2
09:24 49.8 °F /  9.9 °C 39.7 °F /  4.3 °C 29.76in /  1007.7hPa West 12.0mph /  19.3km/h 17.0mph /  27.4km/h 68% 0.00in /  0mm 348.00 W/m2
09:29 50.1 °F /  10.1 °C 39.6 °F /  4.2 °C 29.76in /  1007.7hPa WNW 15.0mph /  24.1km/h 17.0mph /  27.4km/h 67% 0.00in /  0mm 364.00 W/m2
09:34 50.6 °F /  10.3 °C 40.0 °F /  4.4 °C 29.76in /  1007.7hPa West 15.0mph /  24.1km/h 21.0mph /  33.8km/h 67% 0.00in /  0mm 381.00 W/m2
09:39 51.2 °F /  10.7 °C 38.6 °F /  3.7 °C 29.76in /  1007.7hPa WNW 16.0mph /  25.7km/h 21.0mph /  33.8km/h 62% 0.00in /  0mm 399.00 W/m2
09:44 51.5 °F /  10.8 °C 38.1 °F /  3.4 °C 29.76in /  1007.7hPa WNW 8.0mph /  12.9km/h 22.0mph /  35.4km/h 60% 0.00in /  0mm 413.00 W/m2
09:49 51.9 °F /  11.1 °C 38.0 °F /  3.3 °C 29.76in /  1007.7hPa WNW 18.0mph /  29km/h 22.0mph /  35.4km/h 59% 0.00in /  0mm 424.00 W/m2
09:54 52.1 °F /  11.2 °C 37.8 °F /  3.2 °C 29.76in /  1007.7hPa WNW 23.0mph /  37km/h 25.0mph /  40.2km/h 58% 0.00in /  0mm 439.00 W/m2
09:59 52.2 °F /  11.2 °C 37.4 °F /  3 °C 29.76in /  1007.7hPa WNW 17.0mph /  27.4km/h 25.0mph /  40.2km/h 57% 0.00in /  0mm 454.00 W/m2
10:04 52.7 °F /  11.5 °C 37.4 °F /  3 °C 29.75in /  1007.3hPa WNW 12.0mph /  19.3km/h 24.0mph /  38.6km/h 56% 0.00in /  0mm 468.00 W/m2
10:09 53.2 °F /  11.8 °C 37.0 °F /  2.8 °C 29.75in /  1007.3hPa WNW 16.0mph /  25.7km/h 21.0mph /  33.8km/h 54% 0.00in /  0mm 483.00 W/m2
10:14 53.4 °F /  11.9 °C 36.2 °F /  2.3 °C 29.76in /  1007.7hPa WNW 17.0mph /  27.4km/h 27.0mph /  43.5km/h 52% 0.00in /  0mm 497.00 W/m2
10:19 53.7 °F /  12.1 °C 36.5 °F /  2.5 °C 29.75in /  1007.3hPa WNW 13.0mph /  20.9km/h 27.0mph /  43.5km/h 52% 0.00in /  0mm 508.00 W/m2
10:24 54.0 °F /  12.2 °C 36.3 °F /  2.4 °C 29.75in /  1007.3hPa WNW 16.0mph /  25.7km/h 24.0mph /  38.6km/h 51% 0.00in /  0mm 522.00 W/m2
10:29 54.5 °F /  12.5 °C 36.7 °F /  2.6 °C 29.75in /  1007.3hPa WNW 16.0mph /  25.7km/h 24.0mph /  38.6km/h 51% 0.00in /  0mm 524.00 W/m2
10:34 55.0 °F /  12.8 °C 36.2 °F /  2.3 °C 29.75in /  1007.3hPa WNW 18.0mph /  29km/h 23.0mph /  37km/h 49% 0.00in /  0mm 515.00 W/m2
10:39 55.3 °F /  12.9 °C 35.4 °F /  1.9 °C 29.75in /  1007.3hPa WNW 15.0mph /  24.1km/h 23.0mph /  37km/h 47% 0.00in /  0mm 503.00 W/m2
10:44 55.7 °F /  13.2 °C 35.8 °F /  2.1 °C 29.75in /  1007.3hPa NW 10.0mph /  16.1km/h 27.0mph /  43.5km/h 47% 0.00in /  0mm 489.00 W/m2
10:49 55.9 °F /  13.3 °C 35.4 °F /  1.9 °C 29.75in /  1007.3hPa NW 17.0mph /  27.4km/h 27.0mph /  43.5km/h 46% 0.00in /  0mm 476.00 W/m2
10:54 55.9 °F /  13.3 °C 34.8 °F /  1.6 °C 29.75in /  1007.3hPa West 15.0mph /  24.1km/h 23.0mph /  37km/h 45% 0.00in /  0mm 475.00 W/m2
10:59 56.7 °F /  13.7 °C 35.0 °F /  1.7 °C 29.75in /  1007.3hPa WNW 19.0mph /  30.6km/h 23.0mph /  37km/h 44% 0.00in /  0mm 482.00 W/m2
11:04 56.9 °F /  13.8 °C 35.2 °F /  1.8 °C 29.74in /  1007hPa West 22.0mph /  35.4km/h 22.0mph /  35.4km/h 44% 0.00in /  0mm 503.00 W/m2
11:09 56.8 °F /  13.8 °C 33.3 °F /  0.7 °C 29.74in /  1007hPa West 17.0mph /  27.4km/h 24.0mph /  38.6km/h 41% 0.00in /  0mm 519.00 W/m2
11:14 57.3 °F /  14.1 °C 34.4 °F /  1.3 °C 29.75in /  1007.3hPa WNW 18.0mph /  29km/h 24.0mph /  38.6km/h 42% 0.00in /  0mm 503.00 W/m2
11:19 57.6 °F /  14.2 °C 34.1 °F /  1.2 °C 29.75in /  1007.3hPa WNW 13.0mph /  20.9km/h 23.0mph /  37km/h 41% 0.00in /  0mm 490.00 W/m2
11:24 57.6 °F /  14.2 °C 34.1 °F /  1.2 °C 29.74in /  1007hPa WNW 14.0mph /  22.5km/h 24.0mph /  38.6km/h 41% 0.00in /  0mm 517.00 W/m2
11:29 58.0 °F /  14.4 °C 34.4 °F /  1.3 °C 29.74in /  1007hPa WNW 17.0mph /  27.4km/h 24.0mph /  38.6km/h 41% 0.00in /  0mm 580.00 W/m2
11:34 58.0 °F /  14.4 °C 33.8 °F /  1 °C 29.74in /  1007hPa West 18.0mph /  29km/h 24.0mph /  38.6km/h 40% 0.00in /  0mm 659.00 W/m2
11:39 58.3 °F /  14.6 °C 34.1 °F /  1.2 °C 29.74in /  1007hPa WNW 22.0mph /  35.4km/h 25.0mph /  40.2km/h 40% 0.00in /  0mm 694.00 W/m2
11:44 58.1 °F /  14.5 °C 33.9 °F /  1.1 °C 29.74in /  1007hPa WNW 14.0mph /  22.5km/h 25.0mph /  40.2km/h 40% 0.00in /  0mm 703.00 W/m2
11:49 58.2 °F /  14.6 °C 34.6 °F /  1.4 °C 29.74in /  1007hPa West 16.0mph /  25.7km/h 22.0mph /  35.4km/h 41% 0.00in /  0mm 710.00 W/m2
11:54 58.4 °F /  14.7 °C 34.2 °F /  1.2 °C 29.74in /  1007hPa WNW 19.0mph /  30.6km/h 21.0mph /  33.8km/h 40% 0.00in /  0mm 717.00 W/m2
11:59 58.9 °F /  14.9 °C 34.0 °F /  1.1 °C 29.74in /  1007hPa WNW 13.0mph /  20.9km/h 25.0mph /  40.2km/h 39% 0.00in /  0mm 724.00 W/m2
12:04 59.1 °F /  15.1 °C 34.1 °F /  1.2 °C 29.74in /  1007hPa West 17.0mph /  27.4km/h 25.0mph /  40.2km/h 39% 0.00in /  0mm 735.00 W/m2
12:09 59.5 °F /  15.3 °C 33.9 °F /  1.1 °C 29.73in /  1006.7hPa West 22.0mph /  35.4km/h 25.0mph /  40.2km/h 38% 0.00in /  0mm 740.00 W/m2
12:14 59.3 °F /  15.2 °C 33.7 °F /  0.9 °C 29.74in /  1007hPa WNW 16.0mph /  25.7km/h 23.0mph /  37km/h 38% 0.00in /  0mm 751.00 W/m2
12:19 59.6 °F /  15.3 °C 33.9 °F /  1.1 °C 29.74in /  1007hPa West 21.0mph /  33.8km/h 25.0mph /  40.2km/h 38% 0.00in /  0mm 756.00 W/m2
12:24 59.8 °F /  15.4 °C 33.5 °F /  0.8 °C 29.74in /  1007hPa WNW 18.0mph /  29km/h 26.0mph /  41.8km/h 37% 0.00in /  0mm 761.00 W/m2
12:29 59.9 °F /  15.5 °C 32.9 °F /  0.5 °C 29.74in /  1007hPa West 19.0mph /  30.6km/h 27.0mph /  43.5km/h 36% 0.00in /  0mm 768.00 W/m2
12:34 60.4 °F /  15.8 °C 31.1 °F /  -0.5 °C 29.74in /  1007hPa WNW 15.0mph /  24.1km/h 27.0mph /  43.5km/h 33% 0.00in /  0mm 775.00 W/m2
12:39 60.3 °F /  15.7 °C 32.5 °F /  0.3 °C 29.73in /  1006.7hPa West 18.0mph /  29km/h 30.0mph /  48.3km/h 35% 0.00in /  0mm 782.00 W/m2
12:44 60.7 °F /  15.9 °C 33.6 °F /  0.9 °C 29.73in /  1006.7hPa WSW 25.0mph /  40.2km/h 30.0mph /  48.3km/h 36% 0.00in /  0mm 786.00 W/m2
12:49 60.3 °F /  15.7 °C 33.2 °F /  0.7 °C 29.73in /  1006.7hPa West 18.0mph /  29km/h 29.0mph /  46.7km/h 36% 0.00in /  0mm 784.00 W/m2
12:54 60.2 °F /  15.7 °C 31.7 °F /  -0.2 °C 29.73in /  1006.7hPa WSW 21.0mph /  33.8km/h 34.0mph /  54.7km/h 34% 0.00in /  0mm 775.00 W/m2
12:59 60.5 °F /  15.8 °C 32.0 °F /  0 °C 29.73in /  1006.7hPa WSW 22.0mph /  35.4km/h 35.0mph /  56.3km/h 34% 0.00in /  0mm 809.00 W/m2
13:04 60.7 °F /  15.9 °C 32.9 °F /  0.5 °C 29.73in /  1006.7hPa West 28.0mph /  45.1km/h 35.0mph /  56.3km/h 35% 0.00in /  0mm 812.00 W/m2
13:09 60.9 °F /  16.1 °C 31.6 °F /  -0.2 °C 29.73in /  1006.7hPa West 20.0mph /  32.2km/h 30.0mph /  48.3km/h 33% 0.00in /  0mm 782.00 W/m2
13:14 61.0 °F /  16.1 °C 31.7 °F /  -0.2 °C 29.73in /  1006.7hPa West 23.0mph /  37km/h 30.0mph /  48.3km/h 33% 0.00in /  0mm 828.00 W/m2
13:19 61.0 °F /  16.1 °C 31.7 °F /  -0.2 °C 29.73in /  1006.7hPa West 19.0mph /  30.6km/h 30.0mph /  48.3km/h 33% 0.00in /  0mm 846.00 W/m2
13:24 61.2 °F /  16.2 °C 32.6 °F /  0.3 °C 29.72in /  1006.3hPa West 19.0mph /  30.6km/h 29.0mph /  46.7km/h 34% 0.00in /  0mm 779.00 W/m2
13:29 61.5 °F /  16.4 °C 32.1 °F /  0.1 °C 29.72in /  1006.3hPa West 17.0mph /  27.4km/h 29.0mph /  46.7km/h 33% 0.00in /  0mm 877.00 W/m2
13:34 62.3 °F /  16.8 °C 32.0 °F /  0 °C 29.72in /  1006.3hPa West 26.0mph /  41.8km/h 29.0mph /  46.7km/h 32% 0.00in /  0mm 752.00 W/m2
13:39 61.7 °F /  16.5 °C 29.9 °F /  -1.2 °C 29.72in /  1006.3hPa West 18.0mph /  29km/h 30.0mph /  48.3km/h 30% 0.00in /  0mm 782.00 W/m2
13:44 61.9 °F /  16.6 °C 30.1 °F /  -1.1 °C 29.72in /  1006.3hPa WNW 14.0mph /  22.5km/h 34.0mph /  54.7km/h 30% 0.00in /  0mm 824.00 W/m2
13:49 62.1 °F /  16.7 °C 29.4 °F /  -1.4 °C 29.72in /  1006.3hPa WNW 18.0mph /  29km/h 34.0mph /  54.7km/h 29% 0.00in /  0mm 826.00 W/m2
13:54 62.3 °F /  16.8 °C 29.6 °F /  -1.3 °C 29.72in /  1006.3hPa WSW 16.0mph /  25.7km/h 30.0mph /  48.3km/h 29% 0.00in /  0mm 826.00 W/m2
13:59 62.3 °F /  16.8 °C 30.4 °F /  -0.9 °C 29.72in /  1006.3hPa West 16.0mph /  25.7km/h 30.0mph /  48.3km/h 30% 0.00in /  0mm 826.00 W/m2
14:04 63.1 °F /  17.3 °C 29.4 °F /  -1.4 °C 29.72in /  1006.3hPa West 10.0mph /  16.1km/h 27.0mph /  43.5km/h 28% 0.00in /  0mm 831.00 W/m2
14:09 62.9 °F /  17.2 °C 28.4 °F /  -2 °C 29.72in /  1006.3hPa WNW 19.0mph /  30.6km/h 34.0mph /  54.7km/h 27% 0.00in /  0mm 844.00 W/m2
14:14 62.5 °F /  16.9 °C 28.9 °F /  -1.7 °C 29.71in /  1006hPa WNW 29.0mph /  46.7km/h 34.0mph /  54.7km/h 28% 0.00in /  0mm 780.00 W/m2
14:19 62.8 °F /  17.1 °C 30.0 °F /  -1.1 °C 29.71in /  1006hPa West 23.0mph /  37km/h 34.0mph /  54.7km/h 29% 0.00in /  0mm 796.00 W/m2
14:24 62.9 °F /  17.2 °C 29.3 °F /  -1.5 °C 29.71in /  1006hPa West 23.0mph /  37km/h 34.0mph /  54.7km/h 28% 0.00in /  0mm 735.00 W/m2
14:29 62.9 °F /  17.2 °C 28.4 °F /  -2 °C 29.71in /  1006hPa West 23.0mph /  37km/h 34.0mph /  54.7km/h 27% 0.00in /  0mm 810.00 W/m2
14:34 63.4 °F /  17.4 °C 29.7 °F /  -1.3 °C 29.71in /  1006hPa West 28.0mph /  45.1km/h 30.0mph /  48.3km/h 28% 0.00in /  0mm 814.00 W/m2
14:39 63.0 °F /  17.2 °C 28.5 °F /  -1.9 °C 29.71in /  1006hPa West 15.0mph /  24.1km/h 30.0mph /  48.3km/h 27% 0.00in /  0mm 698.00 W/m2
14:44 63.4 °F /  17.4 °C 29.7 °F /  -1.3 °C 29.71in /  1006hPa WNW 23.0mph /  37km/h 30.0mph /  48.3km/h 28% 0.00in /  0mm 728.00 W/m2
14:49 63.2 °F /  17.3 °C 28.6 °F /  -1.9 °C 29.71in /  1006hPa WSW 23.0mph /  37km/h 28.0mph /  45.1km/h 27% 0.00in /  0mm 698.00 W/m2
14:54 63.1 °F /  17.3 °C 29.4 °F /  -1.4 °C 29.70in /  1005.6hPa WSW 19.0mph /  30.6km/h 27.0mph /  43.5km/h 28% 0.00in /  0mm 682.00 W/m2
14:59 63.2 °F /  17.3 °C 29.5 °F /  -1.4 °C 29.71in /  1006hPa West 26.0mph /  41.8km/h 29.0mph /  46.7km/h 28% 0.00in /  0mm 768.00 W/m2
15:04 63.8 °F /  17.7 °C 30.0 °F /  -1.1 °C 29.71in /  1006hPa WSW 23.0mph /  37km/h 30.0mph /  48.3km/h 28% 0.00in /  0mm 793.00 W/m2
15:09 63.9 °F /  17.7 °C 29.2 °F /  -1.6 °C 29.71in /  1006hPa WSW 20.0mph /  32.2km/h 30.0mph /  48.3km/h 27% 0.00in /  0mm 784.00 W/m2
15:14 64.6 °F /  18.1 °C 30.7 °F /  -0.7 °C 29.71in /  1006hPa West 19.0mph /  30.6km/h 28.0mph /  45.1km/h 28% 0.00in /  0mm 788.00 W/m2
15:19 64.5 °F /  18.1 °C 28.8 °F /  -1.8 °C 29.70in /  1005.6hPa NW 18.0mph /  29km/h 27.0mph /  43.5km/h 26% 0.00in /  0mm 791.00 W/m2
15:24 64.5 °F /  18.1 °C 29.7 °F /  -1.3 °C 29.70in /  1005.6hPa West 17.0mph /  27.4km/h 27.0mph /  43.5km/h 27% 0.00in /  0mm 765.00 W/m2
15:29 64.8 °F /  18.2 °C 29.1 °F /  -1.6 °C 29.70in /  1005.6hPa West 21.0mph /  33.8km/h 28.0mph /  45.1km/h 26% 0.00in /  0mm 775.00 W/m2
15:34 65.0 °F /  18.3 °C 30.2 °F /  -1 °C 29.70in /  1005.6hPa WSW 20.0mph /  32.2km/h 28.0mph /  45.1km/h 27% 0.00in /  0mm 701.00 W/m2
15:39 64.9 °F /  18.3 °C 31.0 °F /  -0.6 °C 29.70in /  1005.6hPa West 14.0mph /  22.5km/h 26.0mph /  41.8km/h 28% 0.00in /  0mm 775.00 W/m2
15:44 64.9 °F /  18.3 °C 30.1 °F /  -1.1 °C 29.70in /  1005.6hPa West 13.0mph /  20.9km/h 26.0mph /  41.8km/h 27% 0.00in /  0mm 751.00 W/m2
15:49 63.9 °F /  17.7 °C 29.2 °F /  -1.6 °C 29.70in /  1005.6hPa WNW 17.0mph /  27.4km/h 29.0mph /  46.7km/h 27% 0.00in /  0mm 666.00 W/m2
15:54 64.3 °F /  17.9 °C 29.6 °F /  -1.3 °C 29.70in /  1005.6hPa West 9.0mph /  14.5km/h 29.0mph /  46.7km/h 27% 0.00in /  0mm 703.00 W/m2
15:59 64.6 °F /  18.1 °C 29.8 °F /  -1.2 °C 29.70in /  1005.6hPa WNW 15.0mph /  24.1km/h 25.0mph /  40.2km/h 27% 0.00in /  0mm 601.00 W/m2
16:04 65.0 °F /  18.3 °C 30.2 °F /  -1 °C 29.69in /  1005.3hPa WNW 11.0mph /  17.7km/h 23.0mph /  37km/h 27% 0.00in /  0mm 693.00 W/m2
16:09 64.8 °F /  18.2 °C 30.9 °F /  -0.6 °C 29.69in /  1005.3hPa West 15.0mph /  24.1km/h 26.0mph /  41.8km/h 28% 0.00in /  0mm 691.00 W/m2
16:14 64.9 °F /  18.3 °C 29.2 °F /  -1.6 °C 29.68in /  1005hPa WNW 22.0mph /  35.4km/h 26.0mph /  41.8km/h 26% 0.00in /  0mm 633.00 W/m2
16:19 64.9 °F /  18.3 °C 30.1 °F /  -1.1 °C 29.69in /  1005.3hPa West 25.0mph /  40.2km/h 26.0mph /  41.8km/h 27% 0.00in /  0mm 322.00 W/m2
16:24 65.2 °F /  18.4 °C 30.3 °F /  -0.9 °C 29.68in /  1005hPa WSW 31.0mph /  49.9km/h 31.0mph /  49.9km/h 27% 0.00in /  0mm 649.00 W/m2
16:29 66.5 °F /  19.2 °C 30.5 °F /  -0.8 °C 29.68in /  1005hPa West 23.0mph /  37km/h 31.0mph /  49.9km/h 26% 0.00in /  0mm 652.00 W/m2
16:34 66.0 °F /  18.9 °C 30.1 °F /  -1.1 °C 29.68in /  1005hPa WNW 17.0mph /  27.4km/h 31.0mph /  49.9km/h 26% 0.00in /  0mm 642.00 W/m2
16:39 65.7 °F /  18.7 °C 29.8 °F /  -1.2 °C 29.68in /  1005hPa NNW 14.0mph /  22.5km/h 29.0mph /  46.7km/h 26% 0.00in /  0mm 589.00 W/m2
16:44 65.3 °F /  18.5 °C 29.5 °F /  -1.4 °C 29.68in /  1005hPa West 21.0mph /  33.8km/h 28.0mph /  45.1km/h 26% 0.00in /  0mm 364.00 W/m2
16:49 65.8 °F /  18.8 °C 29.9 °F /  -1.2 °C 29.68in /  1005hPa West 18.0mph /  29km/h 29.0mph /  46.7km/h 26% 0.00in /  0mm 670.00 W/m2
16:54 65.8 °F /  18.8 °C 29.0 °F /  -1.7 °C 29.68in /  1005hPa NW 14.0mph /  22.5km/h 29.0mph /  46.7km/h 25% 0.00in /  0mm 610.00 W/m2
16:59 65.9 °F /  18.8 °C 30.0 °F /  -1.1 °C 29.68in /  1005hPa West 22.0mph /  35.4km/h 28.0mph /  45.1km/h 26% 0.00in /  0mm 564.00 W/m2
17:04 66.2 °F /  19 °C 30.3 °F /  -0.9 °C 29.68in /  1005hPa WNW 19.0mph /  30.6km/h 24.0mph /  38.6km/h 26% 0.00in /  0mm 552.00 W/m2
17:09 66.0 °F /  18.9 °C 30.1 °F /  -1.1 °C 29.68in /  1005hPa WNW 19.0mph /  30.6km/h 29.0mph /  46.7km/h 26% 0.00in /  0mm 538.00 W/m2
17:14 66.4 °F /  19.1 °C 30.4 °F /  -0.9 °C 29.68in /  1005hPa WNW 20.0mph /  32.2km/h 29.0mph /  46.7km/h 26% 0.00in /  0mm 527.00 W/m2
17:19 66.2 °F /  19 °C 30.3 °F /  -0.9 °C 29.68in /  1005hPa West 23.0mph /  37km/h 29.0mph /  46.7km/h 26% 0.00in /  0mm 506.00 W/m2
17:24 65.9 °F /  18.8 °C 30.9 °F /  -0.6 °C 29.68in /  1005hPa WNW 24.0mph /  38.6km/h 29.0mph /  46.7km/h 27% 0.00in /  0mm 519.00 W/m2
17:29 66.0 °F /  18.9 °C 30.1 °F /  -1.1 °C 29.68in /  1005hPa WNW 17.0mph /  27.4km/h 29.0mph /  46.7km/h 26% 0.00in /  0mm 434.00 W/m2
17:34 66.2 °F /  19 °C 30.3 °F /  -0.9 °C 29.68in /  1005hPa West 23.0mph /  37km/h 26.0mph /  41.8km/h 26% 0.00in /  0mm 415.00 W/m2
17:39 65.9 °F /  18.8 °C 30.0 °F /  -1.1 °C 29.68in /  1005hPa West 17.0mph /  27.4km/h 27.0mph /  43.5km/h 26% 0.00in /  0mm 381.00 W/m2
17:44 65.8 °F /  18.8 °C 29.0 °F /  -1.7 °C 29.68in /  1005hPa West 22.0mph /  35.4km/h 27.0mph /  43.5km/h 25% 0.00in /  0mm 520.00 W/m2
17:49 65.6 °F /  18.7 °C 29.8 °F /  -1.2 °C 29.68in /  1005hPa West 17.0mph /  27.4km/h 25.0mph /  40.2km/h 26% 0.00in /  0mm 432.00 W/m2
17:54 65.2 °F /  18.4 °C 29.4 °F /  -1.4 °C 29.68in /  1005hPa WNW 19.0mph /  30.6km/h 23.0mph /  37km/h 26% 0.00in /  0mm 165.00 W/m2
17:59 64.7 °F /  18.2 °C 29.9 °F /  -1.2 °C 29.68in /  1005hPa WNW 17.0mph /  27.4km/h 25.0mph /  40.2km/h 27% 0.00in /  0mm 359.00 W/m2
18:04 65.2 °F /  18.4 °C 30.3 °F /  -0.9 °C 29.68in /  1005hPa West 15.0mph /  24.1km/h 25.0mph /  40.2km/h 27% 0.00in /  0mm 197.00 W/m2
18:09 64.6 °F /  18.1 °C 30.7 °F /  -0.7 °C 29.68in /  1005hPa WNW 17.0mph /  27.4km/h 22.0mph /  35.4km/h 28% 0.00in /  0mm 160.00 W/m2
18:14 64.1 °F /  17.8 °C 30.3 °F /  -0.9 °C 29.68in /  1005hPa West 12.0mph /  19.3km/h 21.0mph /  33.8km/h 28% 0.00in /  0mm 141.00 W/m2
18:19 64.1 °F /  17.8 °C 31.2 °F /  -0.4 °C 29.68in /  1005hPa WNW 11.0mph /  17.7km/h 18.0mph /  29km/h 29% 0.00in /  0mm 258.00 W/m2
18:24 64.3 °F /  17.9 °C 30.5 °F /  -0.8 °C 29.68in /  1005hPa West 16.0mph /  25.7km/h 17.0mph /  27.4km/h 28% 0.00in /  0mm 176.00 W/m2
18:29 63.8 °F /  17.7 °C 29.1 °F /  -1.6 °C 29.68in /  1005hPa WNW 9.0mph /  14.5km/h 17.0mph /  27.4km/h 27% 0.00in /  0mm 86.00 W/m2
18:34 63.4 °F /  17.4 °C 30.6 °F /  -0.8 °C 29.68in /  1005hPa NW 17.0mph /  27.4km/h 17.0mph /  27.4km/h 29% 0.00in /  0mm 148.00 W/m2
18:39 64.3 °F /  17.9 °C 32.2 °F /  0.1 °C 29.68in /  1005hPa West 10.0mph /  16.1km/h 17.0mph /  27.4km/h 30% 0.00in /  0mm 355.00 W/m2
18:44 64.6 °F /  18.1 °C 31.6 °F /  -0.2 °C 29.68in /  1005hPa WSW 15.0mph /  24.1km/h 17.0mph /  27.4km/h 29% 0.00in /  0mm 116.00 W/m2
18:49 64.0 °F /  17.8 °C 31.1 °F /  -0.5 °C 29.68in /  1005hPa WSW 13.0mph /  20.9km/h 19.0mph /  30.6km/h 29% 0.00in /  0mm 123.00 W/m2
18:54 63.9 °F /  17.7 °C 31.8 °F /  -0.1 °C 29.68in /  1005hPa West 13.0mph /  20.9km/h 19.0mph /  30.6km/h 30% 0.00in /  0mm 123.00 W/m2
18:59 63.8 °F /  17.7 °C 31.7 °F /  -0.2 °C 29.68in /  1005hPa West 15.0mph /  24.1km/h 17.0mph /  27.4km/h 30% 0.00in /  0mm 158.00 W/m2
19:04 63.7 °F /  17.6 °C 31.7 °F /  -0.2 °C 29.68in /  1005hPa West 11.0mph /  17.7km/h 17.0mph /  27.4km/h 30% 0.00in /  0mm 93.00 W/m2
19:09 63.4 °F /  17.4 °C 30.6 °F /  -0.8 °C 29.68in /  1005hPa WSW 14.0mph /  22.5km/h 18.0mph /  29km/h 29% 0.00in /  0mm 65.00 W/m2
19:14 63.1 °F /  17.3 °C 31.1 °F /  -0.5 °C 29.68in /  1005hPa West 11.0mph /  17.7km/h 18.0mph /  29km/h 30% 0.00in /  0mm 56.00 W/m2
19:19 62.7 °F /  17.1 °C 31.6 °F /  -0.2 °C 29.68in /  1005hPa WSW 9.0mph /  14.5km/h 17.0mph /  27.4km/h 31% 0.00in /  0mm 40.00 W/m2
19:24 62.2 °F /  16.8 °C 32.0 °F /  0 °C 29.68in /  1005hPa West 7.0mph /  11.3km/h 13.0mph /  20.9km/h 32% 0.00in /  0mm 37.00 W/m2
19:29 61.7 °F /  16.5 °C 32.3 °F /  0.2 °C 29.68in /  1005hPa West 6.0mph /  9.7km/h 11.0mph /  17.7km/h 33% 0.00in /  0mm 32.00 W/m2
19:34 61.4 °F /  16.3 °C 32.0 °F /  0 °C 29.68in /  1005hPa WSW 4.0mph /  6.4km/h 10.0mph /  16.1km/h 33% 0.00in /  0mm 33.00 W/m2
19:39 61.0 °F /  16.1 °C 32.4 °F /  0.2 °C 29.68in /  1005hPa WSW 4.0mph /  6.4km/h 8.0mph /  12.9km/h 34% 0.00in /  0mm 25.00 W/m2
19:44 60.6 °F /  15.9 °C 32.1 °F /  0.1 °C 29.67in /  1004.6hPa WSW 3.0mph /  4.8km/h 6.0mph /  9.7km/h 34% 0.00in /  0mm 18.00 W/m2
19:49 60.3 °F /  15.7 °C 32.5 °F /  0.3 °C 29.67in /  1004.6hPa WSW 2.0mph /  3.2km/h 6.0mph /  9.7km/h 35% 0.00in /  0mm 16.00 W/m2
19:54 60.0 °F /  15.6 °C 32.2 °F /  0.1 °C 29.67in /  1004.6hPa SW 2.0mph /  3.2km/h 4.0mph /  6.4km/h 35% 0.00in /  0mm 30.00 W/m2
19:59 59.8 °F /  15.4 °C 32.8 °F /  0.4 °C 29.68in /  1005hPa SW 1.0mph /  1.6km/h 3.0mph /  4.8km/h 36% 0.00in /  0mm 9.00 W/m2
20:04 59.5 °F /  15.3 °C 33.9 °F /  1.1 °C 29.67in /  1004.6hPa NNE 4.0mph /  6.4km/h 6.0mph /  9.7km/h 38% 0.00in /  0mm 7.00 W/m2
20:09 58.8 °F /  14.9 °C 33.2 °F /  0.7 °C 29.67in /  1004.6hPa North 1.0mph /  1.6km/h 6.0mph /  9.7km/h 38% 0.00in /  0mm 7.00 W/m2
20:14 58.4 °F /  14.7 °C 33.5 °F /  0.8 °C 29.67in /  1004.6hPa NNE 4.0mph /  6.4km/h 5.0mph /  8km/h 39% 0.00in /  0mm 0.00 W/m2
20:19 58.1 °F /  14.5 °C 32.6 °F /  0.3 °C 29.67in /  1004.6hPa NE 5.0mph /  8km/h 5.0mph /  8km/h 38% 0.00in /  0mm 0.00 W/m2
20:24 57.9 °F /  14.4 °C 31.8 °F /  -0.1 °C 29.66in /  1004.3hPa NNE 5.0mph /  8km/h 8.0mph /  12.9km/h 37% 0.00in /  0mm 0.00 W/m2
20:29 57.8 °F /  14.3 °C 31.7 °F /  -0.2 °C 29.66in /  1004.3hPa NE 5.0mph /  8km/h 8.0mph /  12.9km/h 37% 0.00in /  0mm 0.00 W/m2
20:34 57.5 °F /  14.2 °C 32.1 °F /  0.1 °C 29.67in /  1004.6hPa ENE 3.0mph /  4.8km/h 8.0mph /  12.9km/h 38% 0.00in /  0mm 0.00 W/m2
20:39 57.0 °F /  13.9 °C 31.0 °F /  -0.6 °C 29.66in /  1004.3hPa ENE 5.0mph /  8km/h 7.0mph /  11.3km/h 37% 0.00in /  0mm 0.00 W/m2
20:44 57.0 °F /  13.9 °C 31.0 °F /  -0.6 °C 29.66in /  1004.3hPa ENE 5.0mph /  8km/h 5.0mph /  8km/h 37% 0.00in /  0mm 0.00 W/m2
20:49 56.9 °F /  13.8 °C 30.9 °F /  -0.6 °C 29.66in /  1004.3hPa ENE 5.0mph /  8km/h 7.0mph /  11.3km/h 37% 0.00in /  0mm 0.00 W/m2
20:54 56.8 °F /  13.8 °C 30.8 °F /  -0.7 °C 29.66in /  1004.3hPa ENE 4.0mph /  6.4km/h 7.0mph /  11.3km/h 37% 0.00in /  0mm 0.00 W/m2
20:59 56.6 °F /  13.7 °C 30.6 °F /  -0.8 °C 29.66in /  1004.3hPa ENE 7.0mph /  11.3km/h 8.0mph /  12.9km/h 37% 0.00in /  0mm 0.00 W/m2
21:04 56.4 °F /  13.6 °C 31.1 °F /  -0.5 °C 29.66in /  1004.3hPa East 4.0mph /  6.4km/h 8.0mph /  12.9km/h 38% 0.00in /  0mm 0.00 W/m2
21:09 55.9 °F /  13.3 °C 31.9 °F /  -0.1 °C 29.66in /  1004.3hPa East 7.0mph /  11.3km/h 7.0mph /  11.3km/h 40% 0.00in /  0mm 0.00 W/m2
21:14 55.3 °F /  12.9 °C 32.0 °F /  0 °C 29.67in /  1004.6hPa East 6.0mph /  9.7km/h 8.0mph /  12.9km/h 41% 0.00in /  0mm 0.00 W/m2
21:19 54.8 °F /  12.7 °C 31.5 °F /  -0.3 °C 29.67in /  1004.6hPa East 6.0mph /  9.7km/h 8.0mph /  12.9km/h 41% 0.00in /  0mm 0.00 W/m2
21:24 54.6 °F /  12.6 °C 31.3 °F /  -0.4 °C 29.66in /  1004.3hPa ENE 5.0mph /  8km/h 8.0mph /  12.9km/h 41% 0.00in /  0mm 0.00 W/m2
21:29 54.4 °F /  12.4 °C 31.8 °F /  -0.1 °C 29.66in /  1004.3hPa East 7.0mph /  11.3km/h 8.0mph /  12.9km/h 42% 0.00in /  0mm 0.00 W/m2
21:34 54.2 °F /  12.3 °C 32.2 °F /  0.1 °C 29.67in /  1004.6hPa East 7.0mph /  11.3km/h 9.0mph /  14.5km/h 43% 0.00in /  0mm 0.00 W/m2
21:39 53.9 °F /  12.2 °C 32.5 °F /  0.3 °C 29.67in /  1004.6hPa East 7.0mph /  11.3km/h 9.0mph /  14.5km/h 44% 0.00in /  0mm 0.00 W/m2
21:44 53.5 °F /  11.9 °C 33.2 °F /  0.7 °C 29.67in /  1004.6hPa SE 4.0mph /  6.4km/h 8.0mph /  12.9km/h 46% 0.00in /  0mm 0.00 W/m2
21:49 53.0 °F /  11.7 °C 33.3 °F /  0.7 °C 29.67in /  1004.6hPa SE 3.0mph /  4.8km/h 7.0mph /  11.3km/h 47% 0.00in /  0mm 0.00 W/m2
21:54 52.7 °F /  11.5 °C 33.0 °F /  0.6 °C 29.67in /  1004.6hPa SE 4.0mph /  6.4km/h 5.0mph /  8km/h 47% 0.00in /  0mm 0.00 W/m2
21:59 52.7 °F /  11.5 °C 33.0 °F /  0.6 °C 29.67in /  1004.6hPa ESE 4.0mph /  6.4km/h 5.0mph /  8km/h 47% 0.00in /  0mm 0.00 W/m2
22:04 52.5 °F /  11.4 °C 33.9 °F /  1.1 °C 29.68in /  1005hPa ESE 3.0mph /  4.8km/h 5.0mph /  8km/h 49% 0.00in /  0mm 0.00 W/m2
22:09 52.1 °F /  11.2 °C 34.0 °F /  1.1 °C 29.68in /  1005hPa SE 4.0mph /  6.4km/h 5.0mph /  8km/h 50% 0.00in /  0mm 0.00 W/m2
22:14 52.0 °F /  11.1 °C 33.4 °F /  0.8 °C 29.68in /  1005hPa SE 5.0mph /  8km/h 6.0mph /  9.7km/h 49% 0.00in /  0mm 0.00 W/m2
22:19 52.1 °F /  11.2 °C 33.0 °F /  0.6 °C 29.68in /  1005hPa SE 5.0mph /  8km/h 8.0mph /  12.9km/h 48% 0.00in /  0mm 0.00 W/m2
22:24 52.4 °F /  11.3 °C 32.7 °F /  0.4 °C 29.67in /  1004.6hPa SE 5.0mph /  8km/h 8.0mph /  12.9km/h 47% 0.00in /  0mm 0.00 W/m2
22:29 52.6 °F /  11.4 °C 32.9 °F /  0.5 °C 29.67in /  1004.6hPa ESE 8.0mph /  12.9km/h 9.0mph /  14.5km/h 47% 0.00in /  0mm 0.00 W/m2
22:34 52.6 °F /  11.4 °C 32.9 °F /  0.5 °C 29.68in /  1005hPa SE 6.0mph /  9.7km/h 9.0mph /  14.5km/h 47% 0.00in /  0mm 0.00 W/m2
22:39 52.6 °F /  11.4 °C 32.9 °F /  0.5 °C 29.68in /  1005hPa SE 5.0mph /  8km/h 8.0mph /  12.9km/h 47% 0.00in /  0mm 0.00 W/m2
22:44 52.6 °F /  11.4 °C 32.9 °F /  0.5 °C 29.68in /  1005hPa SE 3.0mph /  4.8km/h 8.0mph /  12.9km/h 47% 0.00in /  0mm 0.00 W/m2
22:50 52.6 °F /  11.4 °C 32.9 °F /  0.5 °C 29.68in /  1005hPa ESE 8.0mph /  12.9km/h 8.0mph /  12.9km/h 47% 0.00in /  0mm 0.00 W/m2
22:54 52.6 °F /  11.4 °C 32.9 °F /  0.5 °C 29.68in /  1005hPa SSE 5.0mph /  8km/h 8.0mph /  12.9km/h 47% 0.00in /  0mm 0.00 W/m2
22:59 52.8 °F /  11.6 °C 32.6 °F /  0.3 °C 29.68in /  1005hPa SE 6.0mph /  9.7km/h 8.0mph /  12.9km/h 46% 0.00in /  0mm 0.00 W/m2
23:04 53.1 °F /  11.7 °C 32.3 °F /  0.2 °C 29.67in /  1004.6hPa SSE 3.0mph /  4.8km/h 8.0mph /  12.9km/h 45% 0.00in /  0mm 0.00 W/m2
23:09 53.9 °F /  12.2 °C 32.5 °F /  0.3 °C 29.67in /  1004.6hPa South 7.0mph /  11.3km/h 11.0mph /  17.7km/h 44% 0.00in /  0mm 0.00 W/m2
23:14 54.6 °F /  12.6 °C 32.5 °F /  0.3 °C 29.66in /  1004.3hPa SSE 4.0mph /  6.4km/h 11.0mph /  17.7km/h 43% 0.00in /  0mm 0.00 W/m2
23:19 54.5 °F /  12.5 °C 32.4 °F /  0.2 °C 29.66in /  1004.3hPa SE 5.0mph /  8km/h 7.0mph /  11.3km/h 43% 0.00in /  0mm 0.00 W/m2
23:24 54.2 °F /  12.3 °C 32.2 °F /  0.1 °C 29.66in /  1004.3hPa SE 6.0mph /  9.7km/h 7.0mph /  11.3km/h 43% 0.00in /  0mm 0.00 W/m2
23:29 53.7 °F /  12.1 °C 31.7 °F /  -0.2 °C 29.66in /  1004.3hPa SSE 6.0mph /  9.7km/h 9.0mph /  14.5km/h 43% 0.00in /  0mm 0.00 W/m2
23:34 53.2 °F /  11.8 °C 31.8 °F /  -0.1 °C 29.65in /  1003.9hPa SSE 8.0mph /  12.9km/h 9.0mph /  14.5km/h 44% 0.00in /  0mm 0.00 W/m2
23:39 52.9 °F /  11.6 °C 31.0 °F /  -0.6 °C 29.64in /  1003.6hPa SSE 10.0mph /  16.1km/h 10.0mph /  16.1km/h 43% 0.00in /  0mm 0.00 W/m2
23:44 52.6 °F /  11.4 °C 31.3 °F /  -0.4 °C 29.64in /  1003.6hPa SSE 8.0mph /  12.9km/h 10.0mph /  16.1km/h 44% 0.00in /  0mm 0.00 W/m2
23:49 52.2 °F /  11.2 °C 31.5 °F /  -0.3 °C 29.64in /  1003.6hPa SSE 6.0mph /  9.7km/h 10.0mph /  16.1km/h 45% 0.00in /  0mm 0.00 W/m2
23:54 51.6 °F /  10.9 °C 31.5 °F /  -0.3 °C 29.64in /  1003.6hPa SE 5.0mph /  8km/h 9.0mph /  14.5km/h 46% 0.00in /  0mm 0.00 W/m2
Bismarck, North Dakota, USA
Compliments of Weather Underground - 4 mb